This is the latest recevied weather packets stored in our database for station/object KA3WVU. If no packets are shown the sender has not sent any weather packets the latest 10 day(s).
| Time | Temp. | Humidity | Pressure | Rain* | Wind** | Luminosity | Snow |
|---|---|---|---|---|---|---|---|
| 1777992534 | 19.44° C | 57% | 1009.1 hPa | 0 mm | - | 367 W/m² | - |
| 1777992233 | 19.44° C | 57% | 1009.1 hPa | 0 mm | - | 604 W/m² | - |
| 1777991929 | 19.44° C | 58% | 1009.3 hPa | 0 mm | - | 165 W/m² | - |
| 1777991627 | 19.44° C | 57% | 1009.3 hPa | 0 mm | - | 279 W/m² | - |
| 1777991324 | 18.89° C | 58% | 1009.3 hPa | 0 mm | - | 213 W/m² | - |
| 1777991021 | 18.89° C | 59% | 1009.4 hPa | 0 mm | - | 319 W/m² | - |
| 1777990718 | 18.89° C | 57% | 1009 hPa | 0 mm | - | 551 W/m² | - |
| 1777990416 | 18.89° C | 61% | 1009.1 hPa | 0 mm | - | 174 W/m² | - |
| 1777989808 | 18.89° C | 59% | 1009.1 hPa | 0 mm | - | 333 W/m² | - |
| 1777989506 | 18.33° C | 59% | 1009 hPa | 0 mm | - | 433 W/m² | - |
| 1777989202 | 18.33° C | 60% | 1009 hPa | 0 mm | - | 497 W/m² | - |
| 1777988898 | 17.78° C | 63% | 1009.1 hPa | 0 mm | - | 336 W/m² | - |
| 1777988595 | 17.78° C | 60% | 1009 hPa | 0 mm | - | 187 W/m² | - |
| 1777988291 | 17.78° C | 62% | 1008.8 hPa | 0 mm | - | 203 W/m² | - |
| 1777987989 | 17.78° C | 62% | 1008.9 hPa | 0 mm | - | 265 W/m² | - |
| 1777987684 | 17.22° C | 65% | 1008.6 hPa | 0 mm | - | 166 W/m² | - |
| 1777987381 | 16.67° C | 64% | 1008.6 hPa | 0 mm | - | 178 W/m² | - |
| 1777987079 | 16.67° C | 66% | 1009.1 hPa | 0 mm | - | 104 W/m² | - |
| 1777986776 | 16.67° C | 65% | 1009 hPa | 0 mm | - | 138 W/m² | - |
| 1777986473 | 17.22° C | 65% | 1009 hPa | 0 mm | - | 122 W/m² | - |
| 1777986172 | 16.67° C | 63% | 1008.8 hPa | 0 mm | - | 148 W/m² | - |
| 1777985868 | 16.67° C | 65% | 1009 hPa | 0 mm | - | 130 W/m² | - |
| 1777985566 | 16.67° C | 65% | 1009 hPa | 0 mm | - | 123 W/m² | - |
| 1777985262 | 16.67° C | 65% | 1009 hPa | 0 mm | - | 126 W/m² | - |
| 1777984959 | 16.67° C | 66% | 1008.9 hPa | 0 mm | - | 96 W/m² | - |
* Rain latest hour (hover to see other rain measurements)
** Current wind speed in m/s (hover to see current wind gust speed)